createdAt,value
2019-05-16T00:00:29.042Z,100952.09
2019-05-16T00:02:59.381Z,100940.69
2019-05-16T00:05:30.064Z,100946.82
2019-05-16T00:08:00.664Z,100945.80
2019-05-16T00:10:31.342Z,100942.90
2019-05-16T00:13:01.910Z,100938.83
2019-05-16T00:15:32.492Z,100940.53
2019-05-16T00:18:03.088Z,100933.12
2019-05-16T00:20:33.701Z,100935.66
2019-05-16T00:23:04.270Z,100937.66
2019-05-16T00:25:34.951Z,100932.78
2019-05-16T00:28:05.534Z,100923.67
2019-05-16T00:30:36.113Z,100923.67
2019-05-16T00:33:08.292Z,100919.62
2019-05-16T00:35:39.040Z,100918.42
2019-05-16T00:38:09.609Z,100917.45
2019-05-16T00:40:40.201Z,100911.81
2019-05-16T00:43:10.759Z,100913.88
2019-05-16T00:45:41.334Z,100908.77
2019-05-16T00:48:11.890Z,100903.86
2019-05-16T00:50:42.449Z,100901.59
2019-05-16T00:53:13.023Z,100899.91
2019-05-16T00:55:43.836Z,100900.49
2019-05-16T00:58:14.776Z,100897.89
2019-05-16T01:00:49.989Z,100898.21
2019-05-16T01:03:20.796Z,100894.13
2019-05-16T01:05:51.352Z,100892.47
2019-05-16T01:08:21.909Z,100886.34
2019-05-16T01:10:52.978Z,100883.23
2019-05-16T01:13:24.348Z,100893.81
2019-05-16T01:15:57.967Z,100889.59
2019-05-16T01:18:30.123Z,100886.86
2019-05-16T01:21:00.715Z,100886.85
2019-05-16T01:23:31.280Z,100871.11
2019-05-16T01:26:01.984Z,100873.86
2019-05-16T01:28:32.566Z,100876.96
2019-05-16T01:31:03.198Z,100872.88
2019-05-16T01:33:35.220Z,100871.72
2019-05-16T01:36:05.797Z,100874.15
2019-05-16T01:38:38.844Z,100869.66
2019-05-16T01:41:08.894Z,100873.78
2019-05-16T01:43:39.559Z,100871.94
2019-05-16T01:46:10.135Z,100869.91
2019-05-16T01:48:40.696Z,100864.14
2019-05-16T01:51:11.271Z,100862.45
2019-05-16T01:53:41.824Z,100860.41
2019-05-16T01:56:12.403Z,100860.25
2019-05-16T01:58:43.043Z,100850.20
2019-05-16T02:01:15.928Z,100853.28
2019-05-16T02:03:48.027Z,100849.02
2019-05-16T02:06:18.530Z,100845.44
2019-05-16T02:08:49.205Z,100843.70
2019-05-16T02:11:19.775Z,100837.11
2019-05-16T02:13:50.346Z,100836.92
2019-05-16T02:16:20.914Z,100829.58
2019-05-16T02:18:51.494Z,100834.81
2019-05-16T02:21:22.076Z,100833.47
2019-05-16T02:23:52.652Z,100839.25
2019-05-16T02:26:23.236Z,100835.39
2019-05-16T02:28:53.798Z,100826.72
2019-05-16T02:31:24.351Z,100832.63
2019-05-16T02:33:54.901Z,100833.52
2019-05-16T02:36:25.479Z,100826.02
2019-05-16T02:38:56.044Z,100822.45
2019-05-16T02:41:31.040Z,100821.59
2019-05-16T02:44:01.177Z,100832.62
2019-05-16T02:46:33.024Z,100831.47
2019-05-16T02:49:03.586Z,100823.83
2019-05-16T02:51:34.159Z,100826.20
2019-05-16T02:54:04.891Z,100825.70
2019-05-16T02:56:35.558Z,100822.77
2019-05-16T02:59:06.128Z,100811.38
2019-05-16T03:01:36.686Z,100813.84
2019-05-16T03:04:07.237Z,100806.45
2019-05-16T03:06:41.095Z,100804.25
2019-05-16T03:09:12.232Z,100804.61
2019-05-16T03:11:43.928Z,100801.71
2019-05-16T03:14:14.867Z,100799.36
2019-05-16T03:16:50.402Z,100804.62
2019-05-16T03:19:21.605Z,100804.44
2019-05-16T03:21:54.179Z,100803.61
2019-05-16T03:24:24.759Z,100808.70
2019-05-16T03:26:55.413Z,100810.58
2019-05-16T03:29:25.980Z,100809.73
2019-05-16T03:31:56.538Z,100808.69
2019-05-16T03:34:27.113Z,100812.44
2019-05-16T03:37:03.320Z,100807.50
2019-05-16T03:39:31.384Z,100800.19
2019-05-16T03:42:02.073Z,100801.03
2019-05-16T03:44:32.706Z,100795.44
2019-05-16T03:47:03.306Z,100791.02
2019-05-16T03:49:33.859Z,100789.64
2019-05-16T03:52:04.443Z,100800.72
2019-05-16T03:54:34.999Z,100795.95
2019-05-16T03:57:05.579Z,100796.80
2019-05-16T03:59:36.166Z,100797.65
2019-05-16T04:02:06.990Z,100800.37
2019-05-16T04:04:37.563Z,100799.86
2019-05-16T04:07:10.940Z,100800.89
2019-05-16T04:09:41.213Z,100801.39
2019-05-16T04:12:12.029Z,100799.67
2019-05-16T04:14:42.849Z,100794.40
2019-05-16T04:17:13.404Z,100791.34
2019-05-16T04:19:44.555Z,100793.20
2019-05-16T04:22:15.865Z,100787.27
2019-05-16T04:24:46.731Z,100786.59
2019-05-16T04:27:17.620Z,100786.58
2019-05-16T04:29:51.054Z,100786.59
2019-05-16T04:32:21.226Z,100786.09
2019-05-16T04:34:52.753Z,100786.77
2019-05-16T04:37:26.236Z,100781.66
2019-05-16T04:39:55.894Z,100781.66
2019-05-16T04:42:27.070Z,100780.81
2019-05-16T04:45:01.219Z,100770.94
2019-05-16T04:47:31.880Z,100778.42
2019-05-16T04:50:02.766Z,100778.77
2019-05-16T04:52:34.300Z,100775.71
2019-05-16T04:55:11.813Z,100774.35
2019-05-16T04:57:42.263Z,100775.38
2019-05-16T05:00:13.538Z,100777.08
2019-05-16T05:02:44.266Z,100782.69
2019-05-16T05:05:15.568Z,100778.60
2019-05-16T05:07:46.146Z,100784.73
2019-05-16T05:10:16.789Z,100784.39
2019-05-16T05:12:47.408Z,100780.30
2019-05-16T05:15:21.039Z,100775.71
2019-05-16T05:17:50.758Z,100784.22
2019-05-16T05:20:21.335Z,100781.33
2019-05-16T05:22:52.062Z,100782.18
2019-05-16T05:25:22.825Z,100784.22
2019-05-16T05:27:53.655Z,100778.76
2019-05-16T05:30:24.305Z,100782.32
2019-05-16T05:32:54.868Z,100786.23
2019-05-16T05:35:25.459Z,100783.33
2019-05-16T05:37:56.134Z,100786.22
2019-05-16T05:40:26.749Z,100785.55
2019-05-16T05:42:59.735Z,100785.53
2019-05-16T05:45:30.639Z,100790.30
2019-05-16T05:48:01.867Z,100787.59
2019-05-16T05:50:32.434Z,100787.89
2019-05-16T05:53:03.260Z,100791.98
2019-05-16T05:55:34.264Z,100788.56
2019-05-16T05:58:04.826Z,100787.55
2019-05-16T06:00:35.449Z,100785.84
2019-05-16T06:03:06.618Z,100786.44
2019-05-16T06:05:37.198Z,100781.53
2019-05-16T06:08:10.623Z,100794.09
2019-05-16T06:10:40.791Z,100782.81
2019-05-16T06:13:11.377Z,100785.56
2019-05-16T06:15:41.959Z,100782.13
2019-05-16T06:18:12.543Z,100793.03
2019-05-16T06:20:44.219Z,100793.00
2019-05-16T06:23:15.797Z,100784.03
2019-05-16T06:25:46.677Z,100780.13
2019-05-16T06:28:20.160Z,100781.13
2019-05-16T06:30:51.384Z,100775.70
2019-05-16T06:33:23.516Z,100777.22
2019-05-16T06:35:54.098Z,100781.16
2019-05-16T06:38:24.730Z,100769.55
2019-05-16T06:40:55.311Z,100759.77
2019-05-16T06:43:26.118Z,100760.88
2019-05-16T06:46:00.346Z,100758.50
2019-05-16T06:48:30.467Z,100760.27
2019-05-16T06:51:02.925Z,100759.28
2019-05-16T06:53:33.556Z,100758.98
2019-05-16T06:56:04.430Z,100761.77
2019-05-16T06:58:45.671Z,100768.89
2019-05-16T07:01:10.263Z,100768.56
2019-05-16T07:03:40.536Z,100776.56
2019-05-16T07:06:26.219Z,100783.38
2019-05-16T07:08:43.514Z,100778.42
2019-05-16T07:11:14.196Z,100778.41
2019-05-16T07:13:44.775Z,100774.34
2019-05-16T07:16:16.432Z,100770.58
2019-05-16T07:18:50.392Z,100769.88
2019-05-16T07:21:20.408Z,100761.06
2019-05-16T07:23:51.319Z,100762.05
2019-05-16T07:26:22.034Z,100760.00
2019-05-16T07:28:52.616Z,100765.23
2019-05-16T07:31:23.219Z,100764.14
2019-05-16T07:33:53.903Z,100764.80
2019-05-16T07:36:24.593Z,100771.09
2019-05-16T07:38:56.194Z,100766.34
2019-05-16T07:41:26.773Z,100767.81
2019-05-16T07:43:57.464Z,100768.31
2019-05-16T07:46:28.028Z,100764.04
2019-05-16T07:49:01.180Z,100765.25
2019-05-16T07:51:31.215Z,100768.98
2019-05-16T07:54:01.808Z,100762.13
2019-05-16T07:56:32.529Z,100762.70
2019-05-16T07:59:03.314Z,100768.22
2019-05-16T08:01:33.995Z,100772.69
2019-05-16T08:04:04.788Z,100767.59
2019-05-16T08:06:35.495Z,100763.92
2019-05-16T08:09:08.010Z,100757.88
2019-05-16T08:11:40.831Z,100770.27
2019-05-16T08:14:12.578Z,100766.63
2019-05-16T08:16:43.212Z,100756.63
2019-05-16T08:19:14.914Z,100762.64
2019-05-16T08:21:45.533Z,100769.84
2019-05-16T08:24:16.112Z,100777.39
2019-05-16T08:26:46.737Z,100777.82
2019-05-16T08:29:17.293Z,100770.66
2019-05-16T08:31:47.887Z,100773.88
2019-05-16T08:34:20.786Z,100775.72
2019-05-16T08:36:51.940Z,100785.55
2019-05-16T08:39:24.142Z,100784.22
2019-05-16T08:41:54.777Z,100782.98
2019-05-16T08:44:25.480Z,100796.15
2019-05-16T08:49:30.706Z,100797.36
2019-05-16T08:52:01.612Z,100801.52
2019-05-16T08:54:33.661Z,100804.89
2019-05-16T08:57:25.468Z,100813.51
2019-05-16T08:59:41.076Z,100814.00
2019-05-16T09:02:12.511Z,100815.59
2019-05-16T09:04:45.977Z,100821.44
2019-05-16T09:07:16.652Z,100816.69
2019-05-16T09:10:19.016Z,100817.68
2019-05-16T09:10:41.376Z,100799.87
2019-05-16T09:12:20.484Z,100820.80
2019-05-16T09:14:51.063Z,100816.88
2019-05-16T09:17:21.645Z,100821.97
2019-05-16T09:19:52.247Z,100819.08
2019-05-16T09:22:22.831Z,100822.03
2019-05-16T09:24:53.461Z,100823.22
2019-05-16T09:27:24.099Z,100824.56
2019-05-16T09:29:56.837Z,100826.45
2019-05-16T09:32:28.047Z,100820.44
2019-05-16T09:34:58.783Z,100824.91
2019-05-16T09:37:29.379Z,100824.86
2019-05-16T09:39:59.967Z,100822.11
2019-05-16T09:42:30.858Z,100816.31
2019-05-16T09:45:01.459Z,100821.22
2019-05-16T09:47:33.603Z,100827.53
2019-05-16T09:50:08.453Z,100834.03
2019-05-16T09:52:39.131Z,100829.91
2019-05-16T09:55:11.043Z,100828.08
2019-05-16T09:57:41.692Z,100830.05
2019-05-16T10:00:18.371Z,100827.44
2019-05-16T10:02:49.222Z,100823.00
2019-05-16T10:05:20.531Z,100819.91
2019-05-16T10:07:51.130Z,100822.50
2019-05-16T10:10:22.105Z,100819.75
2019-05-16T10:12:54.201Z,100826.80
2019-05-16T10:15:26.969Z,100822.81
2019-05-16T10:17:57.631Z,100823.59
2019-05-16T10:20:28.802Z,100828.08
2019-05-16T10:22:59.379Z,100824.00
2019-05-16T10:25:29.968Z,100820.20
2019-05-16T10:28:00.542Z,100827.82
2019-05-16T10:30:31.196Z,100823.96
2019-05-16T10:33:01.844Z,100823.85
2019-05-16T10:35:32.416Z,100827.69
2019-05-16T10:38:02.998Z,100824.83
2019-05-16T10:40:33.642Z,100825.65
2019-05-16T10:43:06.873Z,100825.74
2019-05-16T10:45:37.002Z,100822.25
2019-05-16T10:48:07.617Z,100823.22
2019-05-16T10:50:38.205Z,100824.19
2019-05-16T10:53:32.517Z,100816.37
2019-05-16T10:55:41.102Z,100822.85
2019-05-16T10:58:11.660Z,100817.19
2019-05-16T11:01:07.654Z,100822.09
2019-05-16T11:03:16.970Z,100832.37
2019-05-16T11:06:01.197Z,100830.91
2019-05-16T11:08:19.301Z,100829.57
2019-05-16T11:10:49.919Z,100834.63
2019-05-16T11:13:20.602Z,100834.67
2019-05-16T11:15:51.178Z,100834.23
2019-05-16T11:18:21.767Z,100835.48
2019-05-16T11:20:52.427Z,100836.00
2019-05-16T11:23:24.294Z,100832.31
2019-05-16T11:25:57.787Z,100836.88
2019-05-16T11:28:27.579Z,100841.13
2019-05-16T11:31:03.250Z,100838.38
2019-05-16T11:33:30.423Z,100839.75
2019-05-16T11:36:01.016Z,100835.48
2019-05-16T11:38:31.789Z,100839.35
2019-05-16T11:41:02.451Z,100839.09
2019-05-16T11:43:36.562Z,100842.73
2019-05-16T11:46:06.757Z,100837.06
2019-05-16T11:48:37.913Z,100843.20
2019-05-16T11:51:08.612Z,100851.65
2019-05-16T11:53:39.190Z,100844.61
2019-05-16T11:56:09.881Z,100843.66
2019-05-16T11:58:40.476Z,100838.92
2019-05-16T12:01:11.556Z,100842.59
2019-05-16T12:03:42.176Z,100842.17
2019-05-16T12:06:13.090Z,100845.19
2019-05-16T12:08:43.668Z,100845.00
2019-05-16T12:11:14.233Z,100844.94
2019-05-16T12:13:47.412Z,100844.61
2019-05-16T12:16:18.810Z,100841.30
2019-05-16T12:18:49.470Z,100839.41
2019-05-16T12:21:20.062Z,100841.11
2019-05-16T12:23:50.631Z,100841.98
2019-05-16T12:26:24.282Z,100841.55
2019-05-16T12:28:56.862Z,100834.20
2019-05-16T12:31:27.272Z,100841.44
2019-05-16T12:33:59.691Z,100844.50
2019-05-16T12:36:31.545Z,100842.40
2019-05-16T12:39:02.255Z,100835.39
2019-05-16T12:41:34.051Z,100838.17
2019-05-16T12:44:07.433Z,100836.17
2019-05-16T12:46:37.478Z,100836.45
2019-05-16T12:49:08.090Z,100834.98
2019-05-16T12:51:38.662Z,100829.58
2019-05-16T12:54:09.255Z,100825.54
2019-05-16T12:56:39.934Z,100835.41
2019-05-16T12:59:10.497Z,100826.46
2019-05-16T13:01:42.093Z,100825.69
2019-05-16T13:04:12.775Z,100823.60
2019-05-16T13:06:44.272Z,100822.55
2019-05-16T13:09:15.137Z,100820.08
2019-05-16T13:11:47.229Z,100825.50
2019-05-16T13:14:18.007Z,100824.33
2019-05-16T13:16:49.074Z,100827.91
2019-05-16T13:19:19.660Z,100819.25
2019-05-16T13:21:50.546Z,100827.09
2019-05-16T13:24:21.200Z,100823.48
2019-05-16T13:26:52.009Z,100816.19
2019-05-16T13:29:22.703Z,100819.80
2019-05-16T13:31:53.314Z,100822.02
2019-05-16T13:34:23.992Z,100816.28
2019-05-16T13:36:54.582Z,100814.77
2019-05-16T13:39:27.966Z,100813.20
2019-05-16T13:41:58.527Z,100814.25
2019-05-16T13:44:29.117Z,100815.31
2019-05-16T13:46:59.699Z,100815.12
2019-05-16T13:49:31.719Z,100818.25
2019-05-16T13:52:02.329Z,100816.02
2019-05-16T13:54:33.107Z,100821.97
2019-05-16T13:57:06.932Z,100821.91
2019-05-16T13:59:37.536Z,100822.69
2019-05-16T14:02:08.266Z,100817.20
2019-05-16T14:04:40.036Z,100814.53
2019-05-16T14:07:10.624Z,100817.08
2019-05-16T14:09:41.210Z,100823.41
2019-05-16T14:12:12.030Z,100815.52
2019-05-16T14:14:42.786Z,100817.86
2019-05-16T14:17:15.433Z,100813.95
2019-05-16T14:19:47.872Z,100819.36
2019-05-16T14:22:18.244Z,100820.53
2019-05-16T14:24:48.857Z,100820.34
2019-05-16T14:27:19.464Z,100824.06
2019-05-16T14:29:50.562Z,100824.97
2019-05-16T14:32:21.369Z,100815.51
2019-05-16T14:34:52.065Z,100813.41
2019-05-16T14:37:22.607Z,100809.87
2019-05-16T14:39:57.718Z,100815.89
2019-05-16T14:42:28.037Z,100812.52
2019-05-16T14:45:11.162Z,100817.15
2019-05-16T14:47:31.990Z,100809.28
2019-05-16T14:50:03.109Z,100804.96
2019-05-16T14:52:36.455Z,100812.98
2019-05-16T14:55:07.438Z,100811.36
2019-05-16T14:57:42.014Z,100815.70
2019-05-16T15:00:13.229Z,100817.64
2019-05-16T15:02:43.852Z,100820.68
2019-05-16T15:05:15.592Z,100817.66
2019-05-16T15:07:48.348Z,100817.09
2019-05-16T15:10:19.291Z,100814.69
2019-05-16T15:12:51.222Z,100806.87
2019-05-16T15:15:24.743Z,100813.33
2019-05-16T15:17:56.793Z,100814.45
2019-05-16T15:20:27.853Z,100816.22
2019-05-16T15:22:58.873Z,100818.17
2019-05-16T15:25:29.448Z,100819.00
2019-05-16T15:28:00.568Z,100824.03
2019-05-16T15:30:31.276Z,100824.37
2019-05-16T15:33:01.829Z,100826.91
2019-05-16T15:35:32.401Z,100826.58
2019-05-16T15:38:03.101Z,100823.38
2019-05-16T15:40:34.093Z,100819.91
2019-05-16T15:43:07.803Z,100825.33
2019-05-16T15:45:43.959Z,100829.50
2019-05-16T15:48:13.264Z,100825.53
2019-05-16T15:50:43.908Z,100829.36
2019-05-16T15:53:14.690Z,100824.41
2019-05-16T15:55:47.142Z,100829.17
2019-05-16T15:58:18.824Z,100830.83
2019-05-16T16:00:51.020Z,100823.69
2019-05-16T16:03:21.745Z,100823.23
2019-05-16T16:05:52.551Z,100825.88
2019-05-16T16:08:23.422Z,100832.01
2019-05-16T16:10:54.051Z,100827.92
2019-05-16T16:13:26.839Z,100834.14
2019-05-16T16:15:57.689Z,100829.98
2019-05-16T16:18:28.662Z,100830.13
2019-05-16T16:20:59.243Z,100829.70
2019-05-16T16:23:29.908Z,100826.13
2019-05-16T16:26:00.667Z,100829.80
2019-05-16T16:28:33.653Z,100838.67
2019-05-16T16:31:07.595Z,100839.10
2019-05-16T16:33:37.963Z,100833.44
2019-05-16T16:36:08.712Z,100839.77
2019-05-16T16:38:39.658Z,100838.11
2019-05-16T16:41:10.237Z,100845.13
2019-05-16T16:43:40.859Z,100847.27
2019-05-16T16:46:13.634Z,100850.50
2019-05-16T16:48:43.879Z,100854.80
2019-05-16T16:51:17.405Z,100852.33
2019-05-16T16:53:47.512Z,100856.80
2019-05-16T16:56:18.125Z,100852.41
2019-05-16T16:58:48.750Z,100844.13
2019-05-16T17:01:19.457Z,100843.50
2019-05-16T17:03:50.090Z,100842.20
2019-05-16T17:06:20.699Z,100841.91
2019-05-16T17:08:51.839Z,100844.91
2019-05-16T17:11:23.042Z,100845.16
2019-05-16T17:13:53.758Z,100832.86
2019-05-16T17:16:28.430Z,100842.83
2019-05-16T17:18:56.929Z,100843.34
2019-05-16T17:21:27.580Z,100846.08
2019-05-16T17:23:58.174Z,100841.52
2019-05-16T17:26:29.140Z,100839.52
2019-05-16T17:28:59.766Z,100834.45
2019-05-16T17:31:31.058Z,100839.77
2019-05-16T17:34:01.664Z,100848.45
2019-05-16T17:36:32.747Z,100848.20
2019-05-16T17:39:05.673Z,100848.84
2019-05-16T17:41:37.011Z,100852.58
2019-05-16T17:44:07.843Z,100861.14
2019-05-16T17:46:40.945Z,100868.30
2019-05-16T17:49:11.470Z,100862.44
2019-05-16T17:51:42.430Z,100860.04
2019-05-16T17:54:13.212Z,100865.69
2019-05-16T17:56:44.097Z,100866.51
2019-05-16T17:59:17.067Z,100866.66
2019-05-16T18:01:47.440Z,100863.26
2019-05-16T18:04:19.868Z,100866.47
2019-05-16T18:06:50.663Z,100862.14
2019-05-16T18:09:21.794Z,100860.74
2019-05-16T18:11:52.541Z,100856.27
2019-05-16T18:14:23.564Z,100858.42
2019-05-16T18:17:01.649Z,100868.36
2019-05-16T18:19:29.075Z,100865.92
2019-05-16T18:21:59.846Z,100863.89
2019-05-16T18:24:30.768Z,100866.44
2019-05-16T18:27:02.188Z,100863.04
2019-05-16T18:29:36.349Z,100862.56
2019-05-16T18:32:09.253Z,100863.38
2019-05-16T18:34:39.841Z,100862.16
2019-05-16T18:37:10.595Z,100861.64
2019-05-16T18:39:41.178Z,100868.50
2019-05-16T18:42:11.925Z,100871.27
2019-05-16T18:44:47.199Z,100868.72
2019-05-16T18:47:17.961Z,100871.48
2019-05-16T18:49:48.872Z,100876.23
2019-05-16T18:52:19.747Z,100879.81
2019-05-16T18:54:50.638Z,100873.72
2019-05-16T18:57:21.487Z,100873.39
2019-05-16T18:59:52.833Z,100875.11
2019-05-16T19:02:23.617Z,100875.59
2019-05-16T19:04:54.251Z,100888.16
2019-05-16T19:07:27.385Z,100883.73
2019-05-16T19:09:59.190Z,100891.14
2019-05-16T19:12:30.740Z,100891.84
2019-05-16T19:15:01.385Z,100885.92
2019-05-16T19:17:33.756Z,100886.75
2019-05-16T19:20:06.618Z,100888.70
2019-05-16T19:22:37.931Z,100892.33
2019-05-16T19:25:08.978Z,100888.70
2019-05-16T19:27:40.234Z,100895.82
2019-05-16T19:30:12.005Z,100892.73
2019-05-16T19:32:42.658Z,100886.36
2019-05-16T19:35:18.245Z,100884.45
2019-05-16T19:37:49.198Z,100877.26
2019-05-16T19:40:20.339Z,100885.64
2019-05-16T19:42:51.405Z,100882.72
2019-05-16T19:45:23.133Z,100877.65
2019-05-16T19:47:53.943Z,100882.01
2019-05-16T19:50:26.654Z,100874.64
2019-05-16T19:52:57.879Z,100872.58
2019-05-16T19:55:29.294Z,100867.63
2019-05-16T19:58:00.315Z,100864.20
2019-05-16T20:00:31.358Z,100866.08
2019-05-16T20:03:02.223Z,100866.59
2019-05-16T20:05:33.162Z,100866.08
2019-05-16T20:08:06.630Z,100859.41
2019-05-16T20:10:37.949Z,100862.01
2019-05-16T20:13:10.194Z,100858.50
2019-05-16T20:15:41.818Z,100866.80
2019-05-16T20:18:13.097Z,100868.83
2019-05-16T20:20:44.278Z,100866.63
2019-05-16T20:23:18.712Z,100860.18
2019-05-16T20:25:49.273Z,100862.58
2019-05-16T20:28:20.383Z,100867.30
2019-05-16T20:30:52.685Z,100850.45
2019-05-16T20:33:23.977Z,100855.53
2019-05-16T20:35:57.275Z,100850.08
2019-05-16T20:38:27.576Z,100856.47
2019-05-16T20:40:59.844Z,100859.20
2019-05-16T20:43:32.357Z,100858.17
2019-05-16T20:46:03.424Z,100856.96
2019-05-16T20:48:34.216Z,100854.57
2019-05-16T20:51:07.399Z,100850.05
2019-05-16T20:53:38.527Z,100850.34
2019-05-16T20:56:12.047Z,100848.25
2019-05-16T20:58:42.806Z,100854.74
2019-05-16T21:01:13.416Z,100857.32
2019-05-16T21:03:44.013Z,100856.31
2019-05-16T21:06:16.921Z,100850.58
2019-05-16T21:08:49.658Z,100853.83
2019-05-16T21:11:19.956Z,100848.02
2019-05-16T21:13:50.944Z,100851.55
2019-05-16T21:16:21.531Z,100847.61
2019-05-16T21:18:52.208Z,100853.20
2019-05-16T21:21:27.226Z,100853.02
2019-05-16T21:23:56.909Z,100855.57
2019-05-16T21:26:27.484Z,100844.80
2019-05-16T21:28:58.065Z,100844.95
2019-05-16T21:31:28.652Z,100847.02
2019-05-16T21:33:59.325Z,100843.55
2019-05-16T21:36:29.939Z,100838.13
2019-05-16T21:39:00.521Z,100835.73
2019-05-16T21:41:32.581Z,100841.11
2019-05-16T21:44:03.547Z,100844.98
2019-05-16T21:46:36.399Z,100839.39
2019-05-16T21:49:07.516Z,100840.21
2019-05-16T21:51:38.364Z,100833.05
2019-05-16T21:54:08.989Z,100828.59
2019-05-16T21:56:39.578Z,100825.89
2019-05-16T21:59:10.299Z,100819.21
2019-05-16T22:01:41.231Z,100826.25
2019-05-16T22:04:12.016Z,100824.83
2019-05-16T22:06:42.689Z,100821.58
2019-05-16T22:09:13.318Z,100822.09
2019-05-16T22:11:46.534Z,100823.13
2019-05-16T22:14:20.387Z,100819.73
2019-05-16T22:16:51.082Z,100823.00
2019-05-16T22:19:21.653Z,100822.17
2019-05-16T22:21:52.242Z,100824.01
2019-05-16T22:24:22.972Z,100818.03
2019-05-16T22:26:53.543Z,100823.80
2019-05-16T22:29:26.315Z,100827.22
2019-05-16T22:31:57.435Z,100826.89
2019-05-16T22:34:29.079Z,100825.19
2019-05-16T22:36:59.656Z,100823.28
2019-05-16T22:39:30.264Z,100817.66
2019-05-16T22:42:01.043Z,100819.36
2019-05-16T22:44:31.804Z,100822.12
2019-05-16T22:47:02.372Z,100816.11
2019-05-16T22:49:33.146Z,100815.92
2019-05-16T22:52:03.726Z,100815.61
2019-05-16T22:54:36.861Z,100815.27
2019-05-16T22:57:07.758Z,100819.17
2019-05-16T22:59:38.365Z,100822.52
2019-05-16T23:02:11.695Z,100828.39
2019-05-16T23:04:42.256Z,100829.80
2019-05-16T23:07:13.121Z,100828.41
2019-05-16T23:09:43.931Z,100833.13
2019-05-16T23:12:14.625Z,100827.02
2019-05-16T23:14:46.287Z,100815.07
2019-05-16T23:17:17.416Z,100818.86
2019-05-16T23:19:48.120Z,100813.91
2019-05-16T23:22:18.905Z,100824.50
2019-05-16T23:24:49.478Z,100822.12
2019-05-16T23:27:20.043Z,100832.63
2019-05-16T23:29:50.605Z,100825.87
2019-05-16T23:32:21.389Z,100811.57
2019-05-16T23:34:52.057Z,100811.04
2019-05-16T23:37:22.642Z,100812.03
2019-05-16T23:39:53.233Z,100811.07
2019-05-16T23:42:26.219Z,100802.34
2019-05-16T23:44:56.696Z,100804.69
2019-05-16T23:47:27.384Z,100793.41
2019-05-16T23:49:57.966Z,100790.27
2019-05-16T23:52:29.154Z,100791.55
2019-05-16T23:54:59.728Z,100792.89
2019-05-16T23:57:30.410Z,100787.77
